createdAt,value
2022-09-24T00:01:51.979Z,90.40
2022-09-24T00:04:25.759Z,90.50
2022-09-24T00:06:54.696Z,90.60
2022-09-24T00:09:24.040Z,90.70
2022-09-24T00:11:53.998Z,90.70
2022-09-24T00:14:22.672Z,90.60
2022-09-24T00:16:51.362Z,90.40
2022-09-24T00:19:21.360Z,90.40
2022-09-24T00:21:50.112Z,90.50
2022-09-24T00:24:33.059Z,90.60
2022-09-24T00:27:03.257Z,90.60
2022-09-24T00:29:33.185Z,90.80
2022-09-24T00:32:02.713Z,90.80
2022-09-24T00:34:32.802Z,90.90
2022-09-24T00:37:01.572Z,91.00
2022-09-24T00:39:30.450Z,91.10
2022-09-24T00:41:59.272Z,91.20
2022-09-24T00:44:54.608Z,91.30
2022-09-24T00:47:33.811Z,91.30
2022-09-24T00:50:17.766Z,91.30
2022-09-24T00:52:52.243Z,91.40
2022-09-24T00:55:22.362Z,91.50
2022-09-24T00:57:54.376Z,91.40
2022-09-24T01:00:23.392Z,91.50
2022-09-24T01:02:56.320Z,91.70
2022-09-24T01:05:26.463Z,91.90
2022-09-24T01:07:55.280Z,92.00
2022-09-24T01:10:51.992Z,92.10
2022-09-24T01:13:43.118Z,92.20
2022-09-24T01:16:18.725Z,92.00
2022-09-24T01:18:53.144Z,92.00
2022-09-24T01:21:39.833Z,92.10
2022-09-24T01:24:28.504Z,92.10
2022-09-24T01:27:05.273Z,92.10
2022-09-24T01:29:52.551Z,92.20
2022-09-24T01:32:32.145Z,92.30
2022-09-24T01:35:07.889Z,92.30
2022-09-24T01:37:39.612Z,92.30
2022-09-24T01:40:10.967Z,92.40
2022-09-24T01:42:44.412Z,92.40
2022-09-24T01:45:34.611Z,92.50
2022-09-24T01:48:05.646Z,92.50
2022-09-24T01:50:40.713Z,92.50
2022-09-24T01:53:17.488Z,92.60
2022-09-24T01:55:50.985Z,92.50
2022-09-24T01:58:25.031Z,92.60
2022-09-24T02:00:59.533Z,92.70
2022-09-24T02:03:32.661Z,92.70
2022-09-24T02:06:05.838Z,92.80
2022-09-24T02:08:39.010Z,92.90
2022-09-24T02:11:11.678Z,93.00
2022-09-24T02:13:44.483Z,93.10
2022-09-24T02:16:17.177Z,93.30
2022-09-24T02:18:50.139Z,93.30
2022-09-24T02:21:39.154Z,93.50
2022-09-24T02:24:12.299Z,93.50
2022-09-24T02:26:41.271Z,93.50
2022-09-24T02:29:10.118Z,93.60
2022-09-24T02:31:44.465Z,93.70
2022-09-24T02:34:25.673Z,93.80
2022-09-24T02:36:56.730Z,93.80
2022-09-24T02:39:44.623Z,93.80
2022-09-24T02:42:16.202Z,93.80
2022-09-24T02:44:44.997Z,94.00
2022-09-24T02:47:16.741Z,94.10
2022-09-24T02:49:45.436Z,94.20
2022-09-24T02:52:32.799Z,94.30
2022-09-24T02:55:01.440Z,94.30
2022-09-24T02:57:30.262Z,94.30
2022-09-24T02:59:58.988Z,94.20
2022-09-24T03:02:29.137Z,94.00
2022-09-24T03:04:57.975Z,94.00
2022-09-24T03:07:26.619Z,93.90
2022-09-24T03:09:55.198Z,93.90
2022-09-24T03:12:23.971Z,93.80
2022-09-24T03:14:52.704Z,93.80
2022-09-24T03:17:21.412Z,93.80
2022-09-24T03:19:51.709Z,93.90
2022-09-24T03:22:20.482Z,93.70
2022-09-24T03:24:49.076Z,93.60
2022-09-24T03:27:17.720Z,93.60
2022-09-24T03:30:03.955Z,93.70
2022-09-24T03:32:34.112Z,93.70
2022-09-24T03:35:04.469Z,93.70
2022-09-24T03:37:33.636Z,93.80
2022-09-24T03:40:02.410Z,93.90
2022-09-24T03:42:31.139Z,94.10
2022-09-24T03:44:59.964Z,94.20
2022-09-24T03:47:28.951Z,94.30
2022-09-24T03:49:57.739Z,94.40
2022-09-24T03:52:28.586Z,94.40
2022-09-24T03:55:16.171Z,94.40
2022-09-24T03:57:44.926Z,94.80
2022-09-24T04:00:14.168Z,94.90
2022-09-24T04:02:43.180Z,94.80
2022-09-24T04:05:12.156Z,94.80
2022-09-24T04:07:43.915Z,94.70
2022-09-24T04:10:12.941Z,94.90
2022-09-24T04:12:43.818Z,94.60
2022-09-24T04:15:13.131Z,94.60
2022-09-24T04:17:42.091Z,94.80
2022-09-24T04:20:13.232Z,95.00
2022-09-24T04:22:43.817Z,95.20
2022-09-24T04:25:14.819Z,95.40
2022-09-24T04:27:44.579Z,95.60
2022-09-24T04:30:15.154Z,95.80
2022-09-24T04:32:43.816Z,95.90
2022-09-24T04:35:12.722Z,96.00
2022-09-24T04:37:42.999Z,95.60
2022-09-24T04:40:13.434Z,95.70
2022-09-24T04:42:42.659Z,95.90
2022-09-24T04:45:12.899Z,96.00
2022-09-24T04:47:44.953Z,96.10
2022-09-24T04:50:14.391Z,96.10
2022-09-24T04:53:04.961Z,96.20
2022-09-24T04:55:34.212Z,96.30
2022-09-24T04:58:03.126Z,96.40
2022-09-24T05:00:33.894Z,96.50
2022-09-24T05:03:04.911Z,96.70
2022-09-24T05:05:52.670Z,96.70
2022-09-24T05:08:22.873Z,96.70
2022-09-24T05:11:10.289Z,96.80
2022-09-24T05:13:39.067Z,96.80
2022-09-24T05:16:08.182Z,96.90
2022-09-24T05:18:37.346Z,96.90
2022-09-24T05:21:06.277Z,97.00
2022-09-24T05:23:36.374Z,97.10
2022-09-24T05:26:22.444Z,97.20
2022-09-24T05:28:52.460Z,97.70
2022-09-24T05:31:21.416Z,97.50
2022-09-24T05:33:51.427Z,97.60
2022-09-24T05:36:20.387Z,97.70
2022-09-24T05:38:50.519Z,97.80
2022-09-24T05:41:19.342Z,97.80
2022-09-24T05:43:48.173Z,97.80
2022-09-24T05:46:18.631Z,97.80
2022-09-24T05:48:47.443Z,98.00
2022-09-24T05:51:16.124Z,98.10
2022-09-24T05:53:44.843Z,98.20
2022-09-24T05:56:33.519Z,98.30
2022-09-24T05:59:02.225Z,98.30
2022-09-24T06:01:31.360Z,98.30
2022-09-24T06:04:04.644Z,98.30
2022-09-24T06:06:36.515Z,98.30
2022-09-24T06:09:06.009Z,98.40
2022-09-24T06:11:40.419Z,98.40
2022-09-24T06:14:10.117Z,98.40
2022-09-24T06:16:39.002Z,98.40
2022-09-24T06:19:08.141Z,98.30
2022-09-24T06:21:36.985Z,98.30
2022-09-24T06:24:06.129Z,98.30
2022-09-24T06:26:36.370Z,98.20
2022-09-24T06:29:06.309Z,98.10
2022-09-24T06:31:35.592Z,98.00
2022-09-24T06:34:04.322Z,98.00
2022-09-24T06:36:33.024Z,98.00
2022-09-24T06:39:01.844Z,98.00
2022-09-24T06:41:30.680Z,97.80
2022-09-24T06:44:01.182Z,97.70
2022-09-24T06:46:30.786Z,97.40
2022-09-24T06:48:59.520Z,97.10
2022-09-24T06:51:28.305Z,96.90
2022-09-24T06:53:57.244Z,96.60
2022-09-24T06:56:26.233Z,96.20
2022-09-24T06:58:55.002Z,96.00
2022-09-24T07:01:25.204Z,95.60
2022-09-24T07:03:54.099Z,95.30
2022-09-24T07:06:22.731Z,95.20
2022-09-24T07:08:52.584Z,95.00
2022-09-24T07:11:21.386Z,94.80
2022-09-24T07:13:50.105Z,94.10
2022-09-24T07:16:18.840Z,93.70
2022-09-24T07:18:48.910Z,93.40
2022-09-24T07:21:18.307Z,93.10
2022-09-24T07:23:48.166Z,92.90
2022-09-24T07:26:16.927Z,92.60
2022-09-24T07:28:45.501Z,92.20
2022-09-24T07:31:18.967Z,92.00
2022-09-24T07:34:10.290Z,91.80
2022-09-24T07:36:39.098Z,91.90
2022-09-24T07:39:08.077Z,91.30
2022-09-24T07:41:41.955Z,90.90
2022-09-24T07:44:11.156Z,90.70
2022-09-24T07:46:39.964Z,90.60
2022-09-24T07:49:10.043Z,90.30
2022-09-24T07:51:39.031Z,89.80
2022-09-24T07:54:08.299Z,89.10
2022-09-24T07:56:37.381Z,88.70
2022-09-24T07:59:07.585Z,88.10
2022-09-24T08:01:36.362Z,87.60
2022-09-24T08:04:06.688Z,86.70
2022-09-24T08:06:40.498Z,86.00
2022-09-24T08:09:11.996Z,85.20
2022-09-24T08:11:40.787Z,84.60
2022-09-24T08:14:09.440Z,84.10
2022-09-24T08:16:39.826Z,83.10
2022-09-24T08:19:13.854Z,82.80
2022-09-24T08:21:44.202Z,81.90
2022-09-24T08:24:13.920Z,81.00
2022-09-24T08:26:42.963Z,80.30
2022-09-24T08:29:12.098Z,79.60
2022-09-24T08:31:42.317Z,79.10
2022-09-24T08:34:11.296Z,77.90
2022-09-24T08:36:42.962Z,77.20
2022-09-24T08:39:14.111Z,76.20
2022-09-24T08:41:54.024Z,74.80
2022-09-24T08:45:02.301Z,73.40
2022-09-24T08:47:38.714Z,72.70
2022-09-24T08:50:17.675Z,71.50
2022-09-24T08:53:03.180Z,70.90
2022-09-24T08:55:38.435Z,69.20
2022-09-24T08:58:33.338Z,67.50
2022-09-24T09:01:09.955Z,67.10
2022-09-24T09:03:44.374Z,66.20
2022-09-24T09:06:25.801Z,64.60
2022-09-24T09:09:07.998Z,62.80
2022-09-24T09:11:41.396Z,61.40
2022-09-24T09:14:17.855Z,61.00
2022-09-24T09:16:51.815Z,60.20
2022-09-24T09:19:25.085Z,59.60
2022-09-24T09:21:58.688Z,58.20
2022-09-24T09:24:37.937Z,57.50
2022-09-24T09:27:18.447Z,55.80
2022-09-24T09:30:01.515Z,54.90
2022-09-24T09:32:47.293Z,54.50
2022-09-24T09:35:25.703Z,54.20
2022-09-24T09:38:03.346Z,53.70
2022-09-24T09:40:42.082Z,52.80
2022-09-24T09:43:18.153Z,51.70
2022-09-24T09:46:00.854Z,50.50
2022-09-24T09:48:46.692Z,49.90
2022-09-24T09:51:22.969Z,49.30
2022-09-24T09:54:01.689Z,49.20
2022-09-24T09:56:35.135Z,49.90
2022-09-24T09:59:11.374Z,49.10
2022-09-24T10:01:43.390Z,48.60
2022-09-24T10:04:40.289Z,47.50
2022-09-24T10:07:11.150Z,45.30
2022-09-24T10:09:42.434Z,44.80
2022-09-24T10:12:18.166Z,44.40
2022-09-24T10:14:59.558Z,43.80
2022-09-24T10:17:42.746Z,42.30
2022-09-24T10:20:19.554Z,39.60
2022-09-24T10:22:54.176Z,38.10
2022-09-24T10:25:27.142Z,37.30
2022-09-24T10:28:20.704Z,36.20
2022-09-24T10:31:17.350Z,35.70
2022-09-24T10:33:48.771Z,35.00
2022-09-24T10:36:37.809Z,34.30
2022-09-24T10:39:15.002Z,34.00
2022-09-24T10:41:49.230Z,33.40
2022-09-24T10:44:21.570Z,33.00
2022-09-24T10:47:08.791Z,33.20
2022-09-24T10:49:54.394Z,33.70
2022-09-24T10:52:42.779Z,33.20
2022-09-24T10:55:33.258Z,33.40
2022-09-24T10:58:06.468Z,33.70
2022-09-24T11:00:56.621Z,34.70
2022-09-24T11:04:00.321Z,35.30
2022-09-24T11:06:44.194Z,35.10
2022-09-24T11:09:22.998Z,35.70
2022-09-24T11:12:02.201Z,35.80
2022-09-24T11:14:47.017Z,35.50
2022-09-24T11:17:30.350Z,35.20
2022-09-24T11:20:20.766Z,35.40
2022-09-24T11:23:05.177Z,35.60
2022-09-24T11:25:42.059Z,35.30
2022-09-24T11:28:40.664Z,34.40
2022-09-24T11:31:18.644Z,34.30
2022-09-24T11:34:14.140Z,33.80
2022-09-24T11:37:15.632Z,33.70
2022-09-24T11:40:01.527Z,33.70
2022-09-24T11:42:35.390Z,34.20
2022-09-24T11:45:27.447Z,34.90
2022-09-24T11:48:24.820Z,35.30
2022-09-24T11:51:04.013Z,35.60
2022-09-24T11:53:41.423Z,36.60
2022-09-24T11:56:17.514Z,37.10
2022-09-24T11:58:50.592Z,37.60
2022-09-24T12:01:24.381Z,38.00
2022-09-24T12:03:58.603Z,37.90
2022-09-24T12:06:32.764Z,36.80
2022-09-24T12:09:15.611Z,36.10
2022-09-24T12:11:51.298Z,35.20
2022-09-24T12:14:24.629Z,34.20
2022-09-24T12:16:58.504Z,33.90
2022-09-24T12:19:32.362Z,33.60
2022-09-24T12:22:04.911Z,33.60
2022-09-24T12:24:39.178Z,33.90
2022-09-24T12:27:14.846Z,34.30
2022-09-24T12:30:11.061Z,34.40
2022-09-24T12:32:57.101Z,34.60
2022-09-24T12:35:47.133Z,34.80
2022-09-24T12:38:20.712Z,35.20
2022-09-24T12:41:27.337Z,35.80
2022-09-24T12:44:02.732Z,35.90
2022-09-24T12:46:40.473Z,36.20
2022-09-24T12:49:21.255Z,36.30
2022-09-24T12:51:50.826Z,36.50
2022-09-24T12:54:26.949Z,36.60
2022-09-24T12:57:10.351Z,36.70
2022-09-24T12:59:50.017Z,36.80
2022-09-24T13:02:21.802Z,36.80
2022-09-24T13:05:04.284Z,37.40
2022-09-24T13:07:35.903Z,37.70
2022-09-24T13:10:24.476Z,37.60
2022-09-24T13:12:55.583Z,37.40
2022-09-24T13:15:36.027Z,37.40
2022-09-24T13:18:25.292Z,37.40
2022-09-24T13:21:03.301Z,37.40
2022-09-24T13:23:44.284Z,37.40
2022-09-24T13:26:27.389Z,37.50
2022-09-24T13:29:26.856Z,37.70
2022-09-24T13:32:03.262Z,37.80
2022-09-24T13:34:33.905Z,37.90
2022-09-24T13:37:11.674Z,37.90
2022-09-24T13:39:46.265Z,38.00
2022-09-24T13:42:23.562Z,38.00
2022-09-24T13:44:57.154Z,38.40
2022-09-24T13:47:32.020Z,38.60
2022-09-24T13:50:10.954Z,38.60
2022-09-24T13:53:01.591Z,38.40
2022-09-24T13:55:34.765Z,38.00
2022-09-24T13:58:03.533Z,37.90
2022-09-24T14:00:33.711Z,38.00
2022-09-24T14:03:05.946Z,38.00
2022-09-24T14:05:37.499Z,38.00
2022-09-24T14:08:09.597Z,37.90
2022-09-24T14:10:44.195Z,37.80
2022-09-24T14:13:19.453Z,37.60
2022-09-24T14:15:58.856Z,37.60
2022-09-24T14:18:30.381Z,37.60
2022-09-24T14:21:06.371Z,37.70
2022-09-24T14:23:40.249Z,37.80
2022-09-24T14:26:12.303Z,38.00
2022-09-24T14:28:44.657Z,38.30
2022-09-24T14:31:16.189Z,38.20
2022-09-24T14:33:45.073Z,38.30
2022-09-24T14:36:15.888Z,38.40
2022-09-24T14:38:54.080Z,38.60
2022-09-24T14:41:26.985Z,38.60
2022-09-24T14:44:22.111Z,38.80
2022-09-24T14:46:56.036Z,38.90
2022-09-24T14:49:27.286Z,39.00
2022-09-24T14:52:00.814Z,39.10
2022-09-24T14:54:33.790Z,39.20
2022-09-24T14:57:26.593Z,39.20
2022-09-24T14:59:55.409Z,39.40
2022-09-24T15:02:32.200Z,39.50
2022-09-24T15:05:06.781Z,39.80
2022-09-24T15:07:36.839Z,39.80
2022-09-24T15:10:07.372Z,40.00
2022-09-24T15:12:38.618Z,40.90
2022-09-24T15:15:30.866Z,40.40
2022-09-24T15:18:01.238Z,40.40
2022-09-24T15:20:29.988Z,40.80
2022-09-24T15:22:58.649Z,41.00
2022-09-24T15:25:27.381Z,41.10
2022-09-24T15:27:56.280Z,41.30
2022-09-24T15:30:25.223Z,41.60
2022-09-24T15:32:54.017Z,41.60
2022-09-24T15:35:24.898Z,41.60
2022-09-24T15:37:53.776Z,41.50
2022-09-24T15:40:26.680Z,41.50
2022-09-24T15:42:55.452Z,41.30
2022-09-24T15:45:25.760Z,41.30
2022-09-24T15:47:55.343Z,41.30
2022-09-24T15:50:26.775Z,41.30
2022-09-24T15:52:59.549Z,41.20
2022-09-24T15:55:28.988Z,41.30
2022-09-24T15:57:57.851Z,41.30
2022-09-24T16:00:27.385Z,41.40
2022-09-24T16:02:58.271Z,41.50
2022-09-24T16:05:32.465Z,41.60
2022-09-24T16:08:20.139Z,41.60
2022-09-24T16:10:49.853Z,41.80
2022-09-24T16:13:19.991Z,42.10
2022-09-24T16:15:49.482Z,42.20
2022-09-24T16:18:21.156Z,42.50
2022-09-24T16:20:51.642Z,42.70
2022-09-24T16:23:20.582Z,43.00
2022-09-24T16:25:57.026Z,43.10
2022-09-24T16:28:26.507Z,43.40
2022-09-24T16:30:55.610Z,43.50
2022-09-24T16:33:25.383Z,44.00
2022-09-24T16:35:56.026Z,44.20
2022-09-24T16:38:25.027Z,44.60
2022-09-24T16:41:01.434Z,44.70
2022-09-24T16:43:30.515Z,45.10
2022-09-24T16:46:04.338Z,45.10
2022-09-24T16:48:33.290Z,45.40
2022-09-24T16:51:09.505Z,45.70
2022-09-24T16:53:38.426Z,46.00
2022-09-24T16:56:08.822Z,46.10
2022-09-24T16:58:37.964Z,46.50
2022-09-24T17:01:08.211Z,46.70
2022-09-24T17:03:39.133Z,46.90
2022-09-24T17:06:10.278Z,47.00
2022-09-24T17:08:56.685Z,47.10
2022-09-24T17:11:25.651Z,47.10
2022-09-24T17:13:54.305Z,47.10
2022-09-24T17:16:25.255Z,47.10
2022-09-24T17:18:55.414Z,47.20
2022-09-24T17:21:25.703Z,47.40
2022-09-24T17:23:54.555Z,47.70
2022-09-24T17:26:25.340Z,48.00
2022-09-24T17:28:55.788Z,48.30
2022-09-24T17:31:26.285Z,48.60
2022-09-24T17:33:58.255Z,48.90
2022-09-24T17:36:29.977Z,49.30
2022-09-24T17:38:59.491Z,49.70
2022-09-24T17:41:29.253Z,50.00
2022-09-24T17:43:59.778Z,50.10
2022-09-24T17:46:30.593Z,50.20
2022-09-24T17:49:01.478Z,50.50
2022-09-24T17:51:33.736Z,50.70
2022-09-24T17:54:04.039Z,50.90
2022-09-24T17:56:34.325Z,51.10
2022-09-24T17:59:03.215Z,51.40
2022-09-24T18:01:39.259Z,51.60
2022-09-24T18:04:11.449Z,52.00
2022-09-24T18:06:49.029Z,52.20
2022-09-24T18:09:20.187Z,52.60
2022-09-24T18:11:50.422Z,52.70
2022-09-24T18:14:20.955Z,52.90
2022-09-24T18:16:55.676Z,53.10
2022-09-24T18:19:24.603Z,53.30
2022-09-24T18:21:59.749Z,53.50
2022-09-24T18:24:30.790Z,53.90
2022-09-24T18:27:06.543Z,54.10
2022-09-24T18:29:38.306Z,54.40
2022-09-24T18:32:10.344Z,54.60
2022-09-24T18:34:39.493Z,54.90
2022-09-24T18:37:11.206Z,55.20
2022-09-24T18:39:39.835Z,55.50
2022-09-24T18:42:08.503Z,55.60
2022-09-24T18:44:38.433Z,55.90
2022-09-24T18:47:07.048Z,56.30
2022-09-24T18:49:37.672Z,56.50
2022-09-24T18:52:06.743Z,56.80
2022-09-24T18:54:38.690Z,57.00
2022-09-24T18:57:07.643Z,57.30
2022-09-24T18:59:44.918Z,57.60
2022-09-24T19:02:14.645Z,57.80
2022-09-24T19:04:45.642Z,58.00
2022-09-24T19:07:16.321Z,58.30
2022-09-24T19:09:46.890Z,58.60
2022-09-24T19:12:15.769Z,58.70
2022-09-24T19:14:44.455Z,58.90
2022-09-24T19:17:13.081Z,59.20
2022-09-24T19:19:41.962Z,59.50
2022-09-24T19:22:10.753Z,59.80
2022-09-24T19:24:39.401Z,60.10
2022-09-24T19:27:09.694Z,60.30
2022-09-24T19:29:38.699Z,60.70
2022-09-24T19:32:07.855Z,60.90
2022-09-24T19:34:36.718Z,61.20
2022-09-24T19:37:24.824Z,61.50
2022-09-24T19:40:03.071Z,61.80
2022-09-24T19:42:34.304Z,62.10
2022-09-24T19:45:03.144Z,62.50
2022-09-24T19:47:31.789Z,62.80
2022-09-24T19:50:00.654Z,63.10
2022-09-24T19:52:29.286Z,63.40
2022-09-24T19:54:57.883Z,63.70
2022-09-24T19:57:27.603Z,64.00
2022-09-24T19:59:58.217Z,64.30
2022-09-24T20:02:27.539Z,64.50
2022-09-24T20:04:57.443Z,64.50
2022-09-24T20:07:28.128Z,64.60
2022-09-24T20:09:57.283Z,64.60
2022-09-24T20:12:26.187Z,64.70
2022-09-24T20:14:55.010Z,64.90
2022-09-24T20:17:25.332Z,65.30
2022-09-24T20:19:53.961Z,65.50
2022-09-24T20:22:22.657Z,65.70
2022-09-24T20:24:51.379Z,66.00
2022-09-24T20:27:37.474Z,66.20
2022-09-24T20:30:07.453Z,66.20
2022-09-24T20:32:38.088Z,66.40
2022-09-24T20:35:07.623Z,66.50
2022-09-24T20:37:36.360Z,66.70
2022-09-24T20:40:05.481Z,66.90
2022-09-24T20:42:38.036Z,67.20
2022-09-24T20:45:08.170Z,67.30
2022-09-24T20:47:39.180Z,67.30
2022-09-24T20:50:09.154Z,67.30
2022-09-24T20:52:56.383Z,67.40
2022-09-24T20:55:25.165Z,67.40
2022-09-24T20:57:55.026Z,67.50
2022-09-24T21:00:25.215Z,67.40
2022-09-24T21:02:55.500Z,67.10
2022-09-24T21:05:24.765Z,67.40
2022-09-24T21:07:53.520Z,67.70
2022-09-24T21:10:22.558Z,68.20
2022-09-24T21:12:51.295Z,68.70
2022-09-24T21:15:20.330Z,69.10
2022-09-24T21:18:05.383Z,69.60
2022-09-24T21:20:39.419Z,69.90
2022-09-24T21:23:08.054Z,70.20
2022-09-24T21:25:53.946Z,70.60
2022-09-24T21:28:24.071Z,70.80
2022-09-24T21:31:03.542Z,70.90
2022-09-24T21:33:33.040Z,70.90
2022-09-24T21:36:03.649Z,70.70
2022-09-24T21:38:33.340Z,71.30
2022-09-24T21:41:04.236Z,70.50
2022-09-24T21:43:34.954Z,70.60
2022-09-24T21:46:05.754Z,70.70
2022-09-24T21:48:35.586Z,70.80
2022-09-24T21:51:08.767Z,70.90
2022-09-24T21:54:00.589Z,71.30
2022-09-24T21:56:30.281Z,71.40
2022-09-24T21:58:59.906Z,71.60
2022-09-24T22:01:30.373Z,71.70
2022-09-24T22:04:01.607Z,71.80
2022-09-24T22:06:33.206Z,71.90
2022-09-24T22:09:05.308Z,71.90
2022-09-24T22:11:52.932Z,71.70
2022-09-24T22:14:21.709Z,71.60
2022-09-24T22:16:50.619Z,71.50
2022-09-24T22:19:19.868Z,71.40
2022-09-24T22:21:50.057Z,71.40
2022-09-24T22:24:19.332Z,71.30
2022-09-24T22:26:48.683Z,71.40
2022-09-24T22:29:17.570Z,71.50
2022-09-24T22:31:46.356Z,71.40
2022-09-24T22:34:32.688Z,71.50
2022-09-24T22:37:06.405Z,71.70
2022-09-24T22:39:36.412Z,71.70
2022-09-24T22:42:05.902Z,71.70
2022-09-24T22:44:34.537Z,72.00
2022-09-24T22:47:03.800Z,72.20
2022-09-24T22:49:33.167Z,72.20
2022-09-24T22:52:04.242Z,72.30
2022-09-24T22:54:32.888Z,72.30
2022-09-24T22:57:01.717Z,72.30
2022-09-24T22:59:30.405Z,72.20
2022-09-24T23:01:59.176Z,72.90
2022-09-24T23:04:27.922Z,72.40
2022-09-24T23:06:57.099Z,72.40
2022-09-24T23:09:27.782Z,72.40
2022-09-24T23:11:57.665Z,72.50
2022-09-24T23:14:26.475Z,72.60
2022-09-24T23:16:59.074Z,72.80
2022-09-24T23:19:48.709Z,73.00
2022-09-24T23:22:17.766Z,73.30
2022-09-24T23:24:49.542Z,73.30
2022-09-24T23:27:19.146Z,73.60
2022-09-24T23:29:48.200Z,73.90
2022-09-24T23:32:17.485Z,74.00
2022-09-24T23:34:46.366Z,74.10
2022-09-24T23:37:15.187Z,74.20
2022-09-24T23:39:43.830Z,74.50
2022-09-24T23:42:14.324Z,74.60
2022-09-24T23:44:43.132Z,74.90
2022-09-24T23:47:11.783Z,74.90
2022-09-24T23:49:40.431Z,75.10
2022-09-24T23:52:09.361Z,75.20
2022-09-24T23:54:39.687Z,75.50
2022-09-24T23:57:09.504Z,75.70
2022-09-24T23:59:39.650Z,75.80
